x

South Brooks (46132) Wave Buoy

2:00pm - Sat 20th Sep 2014 All times are PDT. -7 hours from GMT.

  • Sig Wave height 6.6ft
  • Peak Period 12s
  • Wind
    7mph, 9mph gusts
  • Sea Temp 61°f
  • Air Temp 61°f
  • Sea Pressure 1017.7mb
  • South Brooks
  • South Brooks

More Historic Weather Station data

Upgrade to MSW Pro to gain access to the past 30 days of data for over 8000 Wavebouys and Weather Stations around the globe.

Join Pro

Comparision Forecast

View Surf forecast
   
Sat 09/20 2:00pm 6.5ft 12s 7 9 mph 1017.7mb 61f 61f
1:00pm 6ft 11s 7
mph
1018.6mb 61f 60f
12:00pm 6.5ft 13s 4
mph
1019.5mb 60f 60f
11:00am 7.5ft 13s 2 4 mph 1019.7mb 60f 59f
10:00am 8ft 13s 2 4 mph 1020mb 60f 59f
9:00am 8.5ft 12s 4 7 mph 1020.2mb 59f 60f
8:00am 9.5ft 12s 4 7 mph 1020.2mb 59f 60f
7:00am 9ft 13s 7 9 mph 1020.2mb 59f 59f
6:00am 10ft 12s 7 11 mph 1020.3mb 59f 58f
5:00am 9.5ft 13s 4 9 mph 1020.3mb 59f 58f
4:00am 11.5ft 12s 7 9 mph 1020.6mb 59f 59f
3:00am 11ft 13s 4 9 mph 1020.7mb 59f 59f
2:00am 11ft 12s 7 11 mph 1020.9mb 60f 59f
1:00am 10ft 13s 4 9 mph 1021mb 60f 60f
12:00am 11ft 13s 4 9 mph 1020.8mb 59f 60f
Fri 09/19 11:00pm 11ft 12s 4 7 mph 1020.8mb 60f 60f
10:00pm 10ft 12s 4 7 mph 1020.7mb 60f 60f
9:00pm 11ft 14s 4
mph
1020.6mb 60f 60f
8:00pm 10.5ft 13s 4
mph
1020mb 60f 60f
7:00pm 10ft 11s 4
mph
1019.8mb 61f 61f
6:00pm 11ft 12s 4 7 mph 1019.6mb 61f 62f
5:00pm 11.5ft 12s 4 9 mph 1019.7mb 61f 62f
4:00pm 11ft 12s 4 7 mph 1019.7mb 60f 61f
3:00pm 10ft 10s 7 9 mph 1019.7mb 60f 61f
2:00pm 10ft 10s 4 7 mph 1019.6mb 60f 61f
1:00pm 9.5ft 10s 2 4 mph 1019.2mb 60f 60f
12:00pm 8ft 10s 4
mph
1018.4mb 59f 59f
11:00am 7ft 10s 4 7 mph 1018.2mb 59f 59f
10:00am 7.5ft 10s 4
mph
1017.7mb 59f 59f
9:00am 7ft 9s 4 7 mph 1016.8mb 59f 59f
8:00am 7ft 10s 4 7 mph 1016.1mb 59f 58f
7:00am 7ft 17s 4
mph
1014.9mb 59f 60f
6:00am 7ft 8s 4 7 mph 1014.8mb 59f 59f
5:00am 7ft 16s 2 4 mph 1014.1mb 59f 59f
4:00am 7ft 9s 2 4 mph 1013.7mb 58f 59f
3:00am 6.5ft 9s 4 7 mph 1013.1mb 58f 59f
2:00am 6ft 17s 4 7 mph 1012.2mb 58f 59f
1:00am 6.5ft 8s 9
mph
1011.3mb 59f 60f
12:00am 6ft 8s 7 9 mph 1010.5mb 58f 60f
Thu 09/18 11:00pm 6ft 17s 7 9 mph 1010mb 59f 60f
10:00pm 6ft 17s 9 13 mph 1009.6mb 59f 60f
9:00pm 5.5ft 17s 18 22 mph 1008.6mb 59f 59f
8:00pm 5ft 17s 20 25 mph 1008.1mb 60f 59f
7:00pm 4.5ft 17s 20 22 mph 1008.3mb 60f 59f
6:00pm 4.5ft 18s 18 22 mph 1008mb 60f 60f
5:00pm 4.5ft 17s 13 18 mph 1008.1mb 60f 60f
4:00pm 4.5ft 17s 11 13 mph 1008.7mb 60f 60f
3:00pm 4.5ft 17s 9 11 mph 1008.6mb 60f 60f
2:00pm 4.5ft 17s 9 11 mph 1008.6mb 60f 60f
1:00pm 4.5ft 18s 9 11 mph 1008.1mb 60f 60f
12:00pm 4.5ft 17s 9 11 mph 1007.6mb 60f 60f
11:00am 4.5ft 17s 13 16 mph 1007.3mb 60f 60f
10:00am 5ft 17s 11 13 mph 1007.3mb 60f 60f
9:00am 4.5ft 17s 11 13 mph 1006.7mb 60f 59f
8:00am 4.5ft 18s 9 11 mph 1006.2mb 60f 59f
7:00am 5ft 17s 7 9 mph 1005.8mb 60f 59f
6:00am 5ft 18s 9 11 mph 1005.1mb 59f 60f
5:00am 5ft 18s 9
mph
1005.5mb 59f 60f
4:00am 4.5ft 18s 7 9 mph 1005.7mb 59f 60f
3:00am 5ft 18s 9
mph
1005.7mb 59f 60f
2:00am 5ft 10s 7 9 mph 1006mb 59f 60f
1:00am 5ft 18s 7 9 mph 1006mb 59f 60f
12:00am 5ft 18s 7 9 mph 1005.9mb 59f 59f
Wed 09/17 11:00pm 5ft 18s 9
mph
1006.1mb 58f 59f
10:00pm 5ft 18s 7 9 mph 1006.3mb 58f 59f
9:00pm 5ft 18s 9 11 mph 1006.6mb 58f 59f
8:00pm 5ft 18s 7 9 mph 1006.3mb 58f 59f
7:00pm 5.5ft 18s 9 13 mph 1006.3mb 58f 59f
6:00pm 6ft 18s 9 11 mph 1006.4mb 58f 58f
5:00pm 5ft 12s 9 11 mph 1006.7mb 58f 58f
4:00pm 5ft 11s 9 11 mph 1007.1mb 58f 58f
3:00pm 5.5ft 20s 7 9 mph 1007.7mb 58f 58f
2:00pm 5ft 11s 9
mph
1007.9mb 58f 58f
1:00pm 6ft 12s 11 13 mph 1007.8mb 58f 58f
12:00pm 5ft 20s 13 16 mph 1007.9mb 58f 57f
11:00am 5.5ft 12s 11 13 mph 1008mb 58f 58f
10:00am 5ft 20s 11 13 mph 1008.1mb 58f 57f
9:00am 5.5ft 13s 11 13 mph 1007.9mb 58f 58f
8:00am 5.5ft 13s 13 16 mph 1007.9mb 58f 57f
7:00am 6ft 13s 9 13 mph 1008mb 58f 57f
6:00am 7ft 13s 9 11 mph 1008mb 57f 57f
5:00am 6ft 14s 11 13 mph 1008.2mb 57f 57f
4:00am 6ft 14s 11 13 mph 1008.5mb 57f 57f
3:00am 6ft 13s 13 16 mph 1008.9mb 57f 57f
2:00am 6ft 14s 13 16 mph 1009.3mb 57f 58f
1:00am 5.5ft 13s 11 16 mph 1009.9mb 58f 58f
12:00am 6ft 14s 13 16 mph 1010.3mb 58f 58f
Tue 09/16 11:00pm 6.5ft 14s 11 13 mph 1010.2mb 58f 58f